Latest Weather Observations for Horn Island

IDQ60801

Issued at 1:02 pm EST Tuesday 26 May 2015 (issued every 30 minutes, with the page automatically refreshed every 10 minutes)

About weather observations | Map of weather stations | Latest weather observations for QLD | Other Formats
Station Details ID: 027058 Name: HORN ISLAND Lat: -10.58 Lon: 142.29 Height: 4.0 m
Data from the previous 72 hours. | See also: Recent months at Horn Island
Date/Time
EST
Temp
°C
App
Temp
°C
Dew
Point
Rel
Hum
%
Delta-T
°C
Wind Press
QNH
hPa
Press
MSL
hPa
Rain
since 9 am
mm
Dir
 
Spd
km/h
Gust
km/h
Spd
kts
Gust
kts
26/01:00pm 29.2 27.1 22.4 66 4.6 SE 37 50 20 27 1013.3 - 0.0
26/12:30pm 29.9 28.2 23.1 67 4.7 ESE 37 54 20 29 1013.6 - 0.0
26/12:22pm 29.0 27.8 22.2 66 4.6 SE 32 54 17 29 1013.7 - 0.0
26/12:00pm 29.9 28.3 23.3 67 4.5 ESE 37 52 20 28 1014.0 1014.0 0.0
26/11:30am 29.3 27.0 22.0 64 4.9 ESE 37 57 20 31 1014.2 - 0.0
26/11:29am 29.4 27.5 22.1 65 4.9 ESE 35 54 19 29 1014.3 - 0.0
26/11:00am 28.9 26.7 22.2 67 4.5 ESE 37 50 20 27 1014.8 - 0.0
26/10:30am 28.6 27.8 23.1 72 3.8 SE 32 46 17 25 1015.1 - 0.0
26/10:00am 28.5 27.7 23.0 72 3.8 ESE 32 48 17 26 1015.4 - 0.0
26/09:49am 28.9 28.6 23.8 74 3.5 SE 32 50 17 27 1015.4 - 0.0
26/09:30am 28.6 27.9 23.5 74 3.5 ESE 33 43 18 23 1015.6 - 0.0
26/09:03am 28.0 27.8 23.4 76 3.1 SE 30 48 16 26 1015.4 - 0.0
26/09:00am 27.6 27.8 23.4 78 2.9 SE 28 41 15 22 1015.5 1015.5 1.0
26/08:30am 27.1 27.2 23.3 80 2.6 SE 28 39 15 21 1015.1 - 1.0
26/08:00am 26.6 26.2 23.1 81 2.4 SE 30 41 16 22 1014.9 - 1.0
26/07:30am 26.6 26.2 23.1 81 2.4 SE 30 41 16 22 1014.5 - 1.0
26/07:00am 26.3 25.6 23.2 83 2.1 SE 32 46 17 25 1014.0 - 1.0
26/06:30am 26.2 26.3 23.3 84 2.0 SE 28 46 15 25 1013.9 - 1.0
26/06:21am 26.2 26.2 23.1 83 2.1 SE 28 46 15 25 1013.9 - 1.0
26/06:00am 26.2 26.2 23.1 83 2.1 SE 28 43 15 23 1013.7 1013.7 1.0
26/05:30am 26.2 25.4 23.1 83 2.1 SE 32 46 17 25 1013.6 - 1.0
26/05:00am 26.2 26.3 23.3 84 2.0 SE 28 37 15 20 1013.7 - 1.0
26/04:30am 25.9 26.1 23.4 86 1.7 SE 28 39 15 21 1013.6 - 1.0
26/04:00am 25.8 25.2 23.3 86 1.7 SE 32 44 17 24 1013.4 - 1.0
26/03:30am 25.7 25.6 23.6 88 1.4 SE 30 44 16 24 1013.4 - 1.0
26/03:00am 25.4 26.3 24.0 92 1.0 SE 26 35 14 19 1013.5 1013.5 0.8
26/02:54am 25.3 26.4 24.3 94 0.7 SE 26 37 14 20 1013.6 - 0.8
26/02:32am 25.2 24.3 23.1 88 1.4 ESE 33 46 18 25 1013.9 - 0.4
26/02:30am 25.4 24.4 22.7 85 1.8 ESE 32 44 17 24 1013.9 - 0.4
26/02:00am 25.9 25.9 23.8 88 1.4 SE 30 41 16 22 1014.0 - 0.4
26/01:30am 26.3 26.6 23.6 85 1.8 SE 28 43 15 23 1014.2 - 0.4
26/01:00am 26.1 26.8 23.6 86 1.7 ESE 26 35 14 19 1014.6 - 0.4
26/12:30am 25.9 26.4 23.9 89 1.4 SE 28 39 15 21 1014.8 - 0.4
26/12:10am 25.6 26.1 24.0 91 1.1 SE 28 46 15 25 1014.9 - 0.4
26/12:01am 25.3 25.9 24.1 93 0.8 SE 28 46 15 25 1015.0 - 0.4
26/12:00am 25.4 25.7 24.2 93 0.8 SE 30 46 16 25 1015.0 1015.0 0.4
 
Date/Time
EST
Temp
°C
App
Temp
°C
Dew
Point
Rel
Hum
%
Delta-T
°C
Wind Press
QNH
hPa
Press
MSL
hPa
Rain
since 9 am
mm
Dir
 
Spd
km/h
Gust
km/h
Spd
kts
Gust
kts
25/11:51pm 26.0 26.5 24.0 89 1.4 ESE 28 46 15 25 1014.9 - 0.0
25/11:30pm 26.4 26.3 23.5 84 2.0 SE 30 46 16 25 1015.0 - 0.0
25/11:20pm 26.4 26.5 23.3 83 2.1 SE 28 46 15 25 1015.1 - 0.0
25/11:00pm 26.4 25.8 23.3 83 2.1 SE 32 41 17 22 1015.2 - 0.0
25/10:30pm 26.7 26.8 23.2 81 2.4 ESE 28 41 15 22 1015.0 - 0.0
25/10:00pm 26.8 26.3 22.8 79 2.7 ESE 30 43 16 23 1015.1 - 0.0
25/09:39pm 26.8 25.9 22.8 79 2.7 ESE 32 50 17 27 1015.0 - 0.0
25/09:30pm 26.8 25.9 22.8 79 2.7 ESE 32 46 17 25 1014.9 - 0.0
25/09:00pm 26.8 26.0 23.3 81 2.4 ESE 33 48 18 26 1014.7 1014.7 0.0
25/08:30pm 26.8 25.9 23.1 80 2.5 ESE 33 44 18 24 1014.4 - 0.0
25/08:00pm 26.9 26.0 23.2 80 2.5 ESE 33 46 18 25 1014.2 - 0.0
25/07:30pm 26.9 25.2 22.5 77 3.0 ESE 35 50 19 27 1013.8 - 0.0
25/07:00pm 26.8 26.2 23.3 81 2.4 SE 32 44 17 24 1013.4 - 0.0
25/06:30pm 26.9 26.0 23.2 80 2.5 ESE 33 50 18 27 1013.1 - 0.0
25/06:04pm 27.0 26.2 23.0 79 2.7 SE 32 50 17 27 1012.9 - 0.0
25/06:00pm 27.1 25.9 23.3 80 2.6 SE 35 50 19 27 1012.9 1012.9 0.0
25/05:30pm 27.4 26.4 23.0 77 3.0 SE 33 48 18 26 1012.7 - 0.0
25/05:00pm 27.7 26.4 23.1 76 3.1 ESE 35 46 19 25 1012.6 - 0.0
25/04:30pm 28.0 27.1 23.1 74 3.3 ESE 33 46 18 25 1012.4 - 0.0
25/04:00pm 28.2 27.3 22.9 73 3.6 ESE 32 46 17 25 1012.1 - 0.0
25/03:30pm 28.7 27.4 23.1 71 3.8 ESE 35 56 19 30 1012.0 - 0.0
25/03:10pm 28.8 27.0 23.0 71 4.0 ESE 37 57 20 31 1012.1 - 0.0
25/03:00pm 28.6 27.0 23.3 73 3.6 ESE 37 52 20 28 1012.1 1012.1 0.0
25/02:34pm 29.1 27.4 23.1 70 4.1 ESE 37 56 20 30 1012.2 - 0.0
25/02:30pm 28.9 26.8 23.1 71 4.0 ESE 39 56 21 30 1012.3 - 0.0
25/02:05pm 29.6 27.4 23.5 69 4.2 ESE 41 59 22 32 1012.7 - 0.0
25/02:00pm 29.0 26.1 23.0 70 4.1 ESE 43 59 23 32 1012.7 - 0.0
25/01:57pm 29.0 26.5 23.0 70 4.1 ESE 41 59 22 32 1012.8 - 0.0
25/01:30pm 28.9 27.5 22.9 70 4.1 ESE 35 50 19 27 1013.2 - 0.0
25/01:27pm 29.5 28.0 23.4 69 4.2 ESE 37 56 20 30 1013.2 - 0.0
25/01:00pm 29.0 27.1 23.4 72 3.8 ESE 39 54 21 29 1013.6 - 0.0
25/12:34pm 28.7 27.6 23.4 73 3.6 ESE 35 57 19 31 1013.8 - 0.0
25/12:30pm 28.7 28.1 24.3 77 3.1 SE 35 50 19 27 1013.9 - 0.0
25/12:08pm 28.9 28.4 23.8 74 3.5 ESE 33 52 18 28 1014.1 - 0.0
25/12:00pm 29.0 28.5 23.9 74 3.5 ESE 33 46 18 25 1014.2 1014.2 0.0
25/11:30am 29.1 27.4 23.8 73 3.7 ESE 39 54 21 29 1014.4 - 0.0
25/11:00am 28.7 27.7 23.6 74 3.5 ESE 35 54 19 29 1014.7 - 0.0
25/10:30am 29.0 28.4 24.3 76 3.3 ESE 35 54 19 29 1014.7 - 0.0
25/10:23am 28.4 27.3 23.5 75 3.4 ESE 35 54 19 29 1014.6 - 0.0
25/10:00am 27.9 27.4 23.9 79 2.8 ESE 33 48 18 26 1015.1 - 0.0
25/09:30am 27.8 28.4 24.2 81 2.5 ESE 28 41 15 22 1015.2 - 0.0
25/09:00am 26.9 27.8 24.0 84 2.0 ESE 26 37 14 20 1015.1 1015.1 1.4
25/08:43am 27.0 27.8 24.5 86 1.7 ESE 28 46 15 25 1014.9 - 1.4
25/08:30am 26.7 27.3 24.2 86 1.7 ESE 28 39 15 21 1014.9 - 1.4
25/08:03am 26.3 28.1 24.9 92 1.0 ESE 24 32 13 17 1014.6 - 1.4
25/08:00am 26.1 27.8 24.7 92 1.0 ESE 24 32 13 17 1014.6 - 1.4
25/07:41am 25.7 25.8 23.9 90 1.2 SE 30 48 16 26 1014.6 - 0.8
25/07:38am 26.1 26.6 24.0 88 1.4 SE 28 39 15 21 1014.6 - 0.6
25/07:30am 26.5 27.4 24.0 86 1.7 ESE 26 41 14 22 1014.4 - 0.6
25/07:00am 26.3 27.7 24.2 88 1.4 SE 24 39 13 21 1013.9 - 0.6
25/06:33am 25.8 26.2 23.7 88 1.4 SE 28 46 15 25 1013.7 - 0.6
25/06:30am 26.1 27.4 24.0 88 1.4 SE 24 33 13 18 1013.7 - 0.6
25/06:00am 25.8 27.8 24.0 90 1.2 SE 20 30 11 16 1013.4 1013.4 0.6
25/05:44am 25.8 27.1 24.0 90 1.2 SE 24 35 13 19 1013.2 - 0.6
25/05:35am 25.7 26.6 23.9 90 1.2 SE 26 35 14 19 1013.1 - 0.6
25/05:30am 25.5 26.7 23.9 91 1.1 SE 24 33 13 18 1013.2 - 0.6
25/05:17am 25.4 27.6 24.0 92 1.0 SE 19 28 10 15 1013.3 - 0.4
25/05:07am 25.5 27.6 23.7 90 1.2 SSE 19 30 10 16 1013.1 - 0.2
25/05:00am 25.6 27.7 23.8 90 1.2 SSE 19 30 10 16 1013.1 - 0.2
25/04:54am 25.6 27.7 23.8 90 1.2 SSE 19 26 10 14 1013.0 - 0.2
25/04:43am 25.5 27.4 23.7 90 1.2 SSE 20 30 11 16 1013.0 - 0.2
25/04:38am 25.4 27.3 23.8 91 1.1 SSE 20 32 11 17 1013.1 - 0.2
25/04:30am 25.4 27.3 23.8 91 1.1 SE 20 32 11 17 1013.1 - 0.2
25/04:13am 25.1 27.4 24.1 94 0.7 SE 19 28 10 15 1013.2 - 0.2
25/04:00am 25.0 26.6 23.8 93 0.8 SE 22 32 12 17 1013.3 - 0.2
25/03:47am 25.4 27.4 23.6 90 1.2 SE 19 30 10 16 1013.3 - 0.0
25/03:30am 25.5 26.8 23.4 88 1.4 SE 22 32 12 17 1013.2 - 0.0
25/03:00am 25.8 26.7 23.3 86 1.7 SSE 24 33 13 18 1013.2 1013.2 0.0
25/02:32am 25.4 26.4 23.5 89 1.3 SE 24 35 13 19 1013.4 - 0.0
25/02:30am 25.3 25.9 23.5 90 1.2 SE 26 39 14 21 1013.5 - 0.0
25/02:27am 25.3 25.9 23.5 90 1.2 SE 26 39 14 21 1013.5 - 0.0
25/02:22am 25.4 25.6 23.5 89 1.3 SE 28 39 15 21 1013.5 - 0.0
25/02:00am 26.0 25.5 22.9 83 2.1 SE 30 43 16 23 1013.7 - 0.0
25/01:30am 26.2 25.7 22.9 82 2.2 SE 30 41 16 22 1013.7 - 0.0
25/01:00am 26.0 26.2 22.7 82 2.2 SE 26 37 14 20 1014.0 - 0.0
25/12:30am 25.9 26.0 22.6 82 2.2 SE 26 35 14 19 1014.2 - 0.0
25/12:00am 25.8 25.5 22.5 82 2.2 SE 28 39 15 21 1014.5 1014.5 0.0
 
Date/Time
EST
Temp
°C
App
Temp
°C
Dew
Point
Rel
Hum
%
Delta-T
°C
Wind Press
QNH
hPa
Press
MSL
hPa
Rain
since 9 am
mm
Dir
 
Spd
km/h
Gust
km/h
Spd
kts
Gust
kts
24/11:30pm 26.2 26.6 22.5 80 2.5 SE 24 41 13 22 1014.7 - 0.0
24/11:00pm 26.2 26.5 22.3 79 2.6 SE 24 33 13 18 1014.6 - 0.0
24/10:30pm 26.3 26.2 22.2 78 2.8 SE 26 44 14 24 1014.7 - 0.0
24/10:00pm 26.2 26.5 22.3 79 2.6 SSE 24 35 13 19 1014.6 - 0.0
24/09:30pm 26.3 27.0 22.2 78 2.8 SSE 22 35 12 19 1014.7 - 0.0
24/09:00pm 26.4 26.9 22.0 77 2.9 SE 22 32 12 17 1014.7 1014.7 0.0
24/08:30pm 26.6 27.1 22.0 76 3.1 SE 22 32 12 17 1014.7 - 0.0
24/08:00pm 26.4 26.9 22.0 77 2.9 SE 22 35 12 19 1014.3 - 0.0
24/07:30pm 26.6 25.9 21.8 75 3.2 SE 28 43 15 23 1014.0 - 0.0
24/07:00pm 26.7 27.6 21.9 75 3.2 SE 20 35 11 19 1013.7 - 0.0
24/06:30pm 26.8 26.9 21.8 74 3.3 SE 24 33 13 18 1013.6 - 0.0
24/06:00pm 26.9 27.2 21.6 72 3.5 SE 22 32 12 17 1013.2 1013.2 0.0
24/05:30pm 27.2 27.6 21.7 72 3.7 SSE 22 33 12 18 1012.8 - 0.0
24/05:00pm 27.3 27.3 21.6 71 3.8 SE 24 35 13 19 1012.5 - 0.0
24/04:30pm 27.5 26.8 21.8 71 3.8 SE 28 39 15 21 1012.3 - 0.0
24/04:00pm 27.3 25.6 21.3 69 4.0 SE 32 48 17 26 1012.4 - 0.0
24/03:30pm 27.9 26.5 21.2 67 4.5 SE 30 41 16 22 1012.2 - 0.0
24/03:00pm 27.9 26.0 21.4 67 4.3 SE 33 46 18 25 1012.2 1012.2 0.0
24/02:30pm 28.3 25.8 20.8 63 5.0 ESE 35 52 19 28 1012.2 - 0.0
24/02:10pm 29.0 27.0 21.2 62 5.2 ESE 33 52 18 28 1012.2 - 0.0
24/02:00pm 29.2 27.2 21.2 62 5.3 ESE 33 50 18 27 1012.0 - 0.0
24/01:30pm 28.5 26.7 21.5 66 4.7 ESE 33 46 18 25 1012.4 - 0.0
24/01:00pm 28.3 26.8 21.8 68 4.4 SE 32 44 17 24 1013.0 - 0.0
24/12:30pm 28.7 26.5 21.5 65 4.8 SE 35 46 19 25 1013.3 - 0.0
24/12:08pm 28.5 27.0 21.8 67 4.5 ESE 32 50 17 27 1013.6 - 0.0
24/12:00pm 27.9 26.2 21.4 67 4.3 ESE 32 43 17 23 1013.7 1013.7 0.0
24/11:30am 28.6 27.3 22.1 68 4.4 ESE 32 44 17 24 1014.2 - 0.0
24/11:00am 28.6 27.0 21.6 66 4.7 ESE 32 44 17 24 1014.4 - 0.0
24/10:30am 28.3 26.7 21.8 68 4.4 SE 33 46 18 25 1014.6 - 0.0
24/10:00am 28.3 26.6 21.3 65 4.7 SE 32 44 17 24 1014.6 - 0.0
24/09:30am 28.1 27.5 21.9 69 4.2 SE 28 35 15 19 1014.6 - 0.0
24/09:00am 27.9 28.0 21.9 70 4.0 SE 24 35 13 19 1014.4 1014.4 0.0
24/08:30am 27.2 27.1 22.2 74 3.4 SE 26 35 14 19 1014.4 - 0.0
24/08:00am 26.8 27.5 22.2 76 3.1 SE 22 33 12 18 1014.0 - 0.0
24/07:30am 26.1 26.3 22.0 78 2.7 SE 24 35 13 19 1013.8 - 0.0
24/07:00am 25.9 25.6 21.8 78 2.7 SE 26 39 14 21 1013.6 - 0.0
24/06:30am 25.7 26.7 21.8 79 2.6 SE 19 32 10 17 1013.4 - 0.0
24/06:00am 25.4 26.8 21.9 81 2.3 SE 17 28 9 15 1013.2 1013.2 0.0
24/05:30am 25.4 26.7 21.7 80 2.5 SE 17 26 9 14 1013.1 - 0.0
24/05:00am 25.5 25.8 21.6 79 2.6 SE 22 33 12 18 1012.9 - 0.0
24/04:30am 25.4 26.3 21.5 79 2.6 SE 19 26 10 14 1013.0 - 0.0
24/04:00am 25.6 26.3 21.5 78 2.7 SSE 20 32 11 17 1012.8 - 0.0
24/03:30am 25.5 26.7 21.4 78 2.7 SE 17 24 9 13 1012.9 - 0.0
24/03:00am 25.8 26.8 21.7 78 2.7 SE 19 28 10 15 1013.2 1013.2 0.0
24/02:30am 25.7 26.6 21.6 78 2.7 SE 19 26 10 14 1013.2 - 0.0
24/02:00am 25.8 26.7 21.5 77 2.9 SE 19 26 10 14 1013.4 - 0.0
24/01:30am 25.7 27.0 21.6 78 2.7 SSE 17 26 9 14 1013.5 - 0.0
24/01:00am 25.6 26.9 21.7 79 2.6 SSE 17 20 9 11 1013.7 - 0.0
24/12:30am 25.6 26.3 21.5 78 2.7 SSE 20 30 11 16 1013.9 - 0.0
24/12:00am 25.7 26.6 21.6 78 2.7 SE 19 30 10 16 1014.2 1014.2 0.0
 
Date/Time
EST
Temp
°C
App
Temp
°C
Dew
Point
Rel
Hum
%
Delta-T
°C
Wind Press
QNH
hPa
Press
MSL
hPa
Rain
since 9 am
mm
Dir
 
Spd
km/h
Gust
km/h
Spd
kts
Gust
kts
23/11:30pm 25.8 26.8 21.7 78 2.7 SE 19 28 10 15 1014.4 - 0.0
23/11:00pm 25.7 26.6 21.6 78 2.7 SSE 19 24 10 13 1014.6 - 0.0
23/10:30pm 25.7 26.5 21.4 77 2.8 SSE 19 26 10 14 1014.9 - 0.0
23/10:00pm 25.8 26.7 21.5 77 2.9 SSE 19 30 10 16 1014.9 - 0.0
23/09:30pm 26.0 26.8 21.4 76 3.1 SE 19 28 10 15 1014.9 - 0.0
23/09:00pm 26.0 26.6 21.4 76 3.0 SSE 20 28 11 15 1014.7 1014.7 0.0
23/08:30pm 26.1 27.3 21.5 76 3.1 SSE 17 28 9 15 1014.6 - 0.0
23/08:00pm 26.2 26.8 21.4 75 3.2 SE 20 33 11 18 1014.4 - 0.0
23/07:30pm 26.3 26.9 21.3 74 3.3 SE 20 30 11 16 1014.1 - 0.0
23/07:00pm 26.6 27.3 21.6 74 3.3 SE 20 28 11 15 1013.8 - 0.0
23/06:30pm 26.7 26.3 21.7 74 3.3 SE 26 33 14 18 1013.5 - 0.0
23/06:00pm 27.1 27.1 21.6 72 3.7 ESE 24 33 13 18 1013.3 1013.3 0.0
23/05:30pm 27.6 27.8 21.4 69 4.1 ESE 22 32 12 17 1013.1 - 0.0
23/05:00pm 28.1 27.4 21.1 65 4.6 ESE 26 35 14 19 1012.9 - 0.0
23/04:30pm 28.6 27.9 21.1 64 5.0 ESE 26 35 14 19 1012.7 - 0.0
23/04:00pm 28.8 27.3 21.0 62 5.2 ESE 30 37 16 20 1012.6 - 0.0
23/03:30pm 28.9 27.3 20.1 59 5.8 ESE 28 35 15 19 1012.5 - 0.0
23/03:00pm 29.3 27.8 20.2 58 6.0 ESE 28 35 15 19 1012.5 1012.5 0.0
23/02:30pm 29.5 28.1 20.4 58 6.0 ESE 28 37 15 20 1012.7 - 0.0
23/02:00pm 29.3 27.9 20.5 59 5.8 ESE 28 37 15 20 1013.1 - 0.0
23/01:30pm 29.2 27.7 20.9 61 5.5 ESE 30 37 16 20 1013.4 - 0.0

Other Formats:

Comma delimited format used in spreadsheet applications
http://www.bom.gov.au/fwo/IDQ60801/IDQ60801.94174.axf

JavaScript Object Notation format (JSON) in row-major order
http://www.bom.gov.au/fwo/IDQ60801/IDQ60801.94174.json